Time;durP1;ratioP1;P1;durP2;ratioP2;P2;SDS_P1;SDS_P2;PMS_P1;PMS_P2;Temp;Humidity;BMP_temperature;BMP_pressure;BME280_temperature;BME280_humidity;BME280_pressure;Samples;Min_cycle;Max_cycle;Signal;HPM_P1;HPM_P2
2022/12/27 16:01:41;;;;;;;10.95;3.70;;;;;;;6.07;100.00;102073.56;5038363;28;21222;-72
2022/12/27 16:04:38;;;;;;;15.23;4.75;;;;;;;6.07;100.00;102077.13;5035503;28;20037;-70
2022/12/27 16:07:41;;;;;;;11.77;4.88;;;;;;;6.05;100.00;102059.47;5038127;28;20017;-75
2022/12/27 16:10:31;;;;;;;17.83;7.30;;;;;;;6.02;100.00;102066.00;5035376;28;20029;-69
2022/12/27 16:13:11;;;;;;;17.25;5.25;;;;;;;5.98;100.00;102068.19;5053166;28;20571;-72
2022/12/27 16:15:43;;;;;;;15.55;4.57;;;;;;;5.98;100.00;102075.44;5036230;28;20025;-70
2022/12/27 16:18:17;;;;;;;;;;;;;;;6.06;100.00;102072.75;5040919;28;20511;-71
2022/12/27 16:21:01;;;;;;;17.45;6.57;;;;;;;5.97;100.00;102066.50;5034371;28;20012;-70
2022/12/27 16:23:37;;;;;;;13.02;4.68;;;;;;;5.97;100.00;102061.13;5033210;28;20025;-68
2022/12/27 16:26:08;;;;;;;16.70;5.47;;;;;;;5.96;100.00;102066.63;5032583;28;20041;-73
2022/12/27 16:28:35;;;;;;;13.98;5.15;;;;;;;5.94;100.00;102060.59;5036563;28;20118;-74
2022/12/27 16:31:06;;;;;;;18.02;5.93;;;;;;;5.92;100.00;102060.78;5033792;28;20033;-74
2022/12/27 16:33:37;;;;;;;15.13;4.55;;;;;;;5.93;100.00;102062.44;5029616;28;20044;-70
2022/12/27 16:36:23;;;;;;;12.32;5.18;;;;;;;5.94;100.00;102057.91;5035165;28;20120;-75
2022/12/27 16:39:03;;;;;;;13.02;4.03;;;;;;;5.91;100.00;102052.88;5034742;28;20474;-73
2022/12/27 16:41:50;;;;;;;12.07;5.25;;;;;;;5.94;100.00;102042.63;5030815;28;20061;-77
2022/12/27 16:44:23;;;;;;;12.40;4.50;;;;;;;5.92;100.00;102043.78;5033308;28;20037;-76
2022/12/27 16:47:19;;;;;;;14.38;4.75;;;;;;;5.91;100.00;102050.19;5034698;28;20029;-74
2022/12/27 16:49:53;;;;;;;12.48;4.63;;;;;;;5.90;100.00;102051.19;5037834;28;20473;-79
2022/12/27 16:52:50;;;;;;;11.30;4.07;;;;;;;5.91;100.00;102047.50;5033900;28;20119;-75
2022/12/27 16:55:57;;;;;;;12.05;4.30;;;;;;;5.92;100.00;102051.84;5032428;28;20037;-79
2022/12/27 16:58:31;;;;;;;14.55;5.45;;;;;;;5.83;100.00;102051.84;5038027;28;20025;-76
2022/12/27 17:00:58;;;;;;;13.98;4.57;;;;;;;5.83;100.00;102059.91;5033418;28;20404;-75
2022/12/27 17:03:37;;;;;;;15.23;5.43;;;;;;;5.85;100.00;102049.00;5031057;28;20040;-73
2022/12/27 17:06:22;;;;;;;15.00;4.85;;;;;;;5.88;100.00;102047.84;5032790;28;20068;-73
2022/12/27 17:09:09;;;;;;;15.30;4.82;;;;;;;5.90;100.00;102049.31;5050834;28;20056;-76
2022/12/27 17:12:04;;;;;;;17.30;5.07;;;;;;;5.89;100.00;102042.28;5029731;28;20038;-75
2022/12/27 17:14:35;;;;;;;10.98;4.18;;;;;;;5.80;100.00;102038.75;5018818;28;20040;-73
2022/12/27 17:17:14;;;;;;;13.35;4.47;;;;;;;5.82;100.00;102036.72;5017721;28;20044;-72
2022/12/27 17:19:54;;;;;;;10.10;4.32;;;;;;;5.82;100.00;102028.66;5019691;28;20121;-74
2022/12/27 17:22:20;;;;;;;15.63;4.50;;;;;;;5.81;100.00;102029.69;5023090;28;20492;-75
2022/12/27 17:24:47;;;;;;;13.10;4.30;;;;;;;5.76;100.00;102029.31;5018419;28;20092;-75
2022/12/27 17:27:31;;;;;;;13.90;4.45;;;;;;;5.79;100.00;102020.94;5021406;28;20040;-72
2022/12/27 17:30:21;;;;;;;15.50;4.45;;;;;;;5.82;100.00;102023.28;5021788;28;20045;-76
2022/12/27 17:32:53;;;;;;;12.27;4.30;;;;;;;5.78;100.00;102026.47;5031340;28;20727;-75
2022/12/27 17:35:40;;;;;;;12.07;4.68;;;;;;;5.78;100.00;102015.72;5019617;28;20030;-74
2022/12/27 17:38:37;;;;;;;15.48;5.45;;;;;;;5.76;100.00;102002.47;5019436;28;20025;-72
2022/12/27 17:44:54;;;;;;;13.98;5.07;;;;;;;5.77;100.00;102009.53;5026353;28;20603;-80
2022/12/27 17:47:39;;;;;;;14.00;4.10;;;;;;;5.72;100.00;102011.84;5014484;28;20586;-80
2022/12/27 17:50:11;;;;;;;11.75;4.50;;;;;;;5.70;100.00;102021.91;5032004;28;20477;-75
2022/12/27 17:58:14;;;;;;;13.45;6.30;;;;;;;5.72;100.00;102006.47;5034488;28;20448;-74
2022/12/27 18:01:00;;;;;;;17.67;7.25;;;;;;;5.72;100.00;102017.22;5030161;28;20048;-73
2022/12/27 18:03:38;;;;;;;22.95;8.45;;;;;;;5.68;100.00;102013.19;5031724;28;20029;-73
2022/12/27 18:06:03;;;;;;;14.38;4.68;;;;;;;5.69;100.00;102014.84;5028943;28;20113;-75
2022/12/27 18:08:32;;;;;;;12.23;4.80;;;;;;;5.66;100.00;102009.81;5034215;28;20057;-72
2022/12/27 18:11:01;;;;;;;11.88;4.35;;;;;;;5.64;100.00;102009.16;5033952;28;20040;-71
2022/12/27 18:13:33;;;;;;;18.58;5.10;;;;;;;5.63;100.00;102008.31;5026376;28;20034;-73
2022/12/27 18:16:09;;;;;;;11.93;4.63;;;;;;;5.62;100.00;102005.81;5025390;28;20400;-71
2022/12/27 18:18:34;;;;;;;10.30;4.57;;;;;;;5.63;100.00;102000.25;5034129;28;20040;-69
2022/12/27 18:21:02;;;;;;;12.18;4.05;;;;;;;5.64;100.00;101988.50;5033719;28;20115;-72
2022/12/27 18:23:37;;;;;;;10.98;4.10;;;;;;;5.64;100.00;101983.13;5032046;28;20377;-73
2022/12/27 18:26:10;;;;;;;11.73;4.25;;;;;;;5.62;100.00;101976.25;5025248;28;20029;-71
2022/12/27 18:28:35;;;;;;;10.82;4.10;;;;;;;5.60;100.00;101970.19;5039839;28;20056;-71
2022/12/27 18:31:13;;;;;;;12.20;4.35;;;;;;;5.64;100.00;101968.88;5035029;28;20080;-72
2022/12/27 18:33:45;;;;;;;14.25;4.45;;;;;;;5.59;100.00;101963.16;5016230;28;20034;-71
2022/12/27 18:36:20;;;;;;;13.85;5.68;;;;;;;5.57;100.00;101959.78;5013961;28;20033;-70
2022/12/27 18:38:54;;;;;;;13.95;4.72;;;;;;;5.55;100.00;101959.13;5020993;28;20029;-72
2022/12/27 18:41:22;;;;;;;13.20;6.28;;;;;;;5.53;100.00;101953.09;5028257;28;20041;-73
2022/12/27 18:43:51;;;;;;;12.82;5.20;;;;;;;5.49;100.00;101953.38;5024393;28;20026;-73
2022/12/27 18:46:35;;;;;;;14.20;4.40;;;;;;;5.47;100.00;101941.97;5013819;28;20044;-71
2022/12/27 18:49:01;;;;;;;13.50;4.35;;;;;;;5.43;100.00;101943.31;5014393;28;20092;-72
2022/12/27 18:51:35;;;;;;;9.30;4.20;;;;;;;5.44;100.00;101944.16;5025642;28;20149;-73
2022/12/27 18:54:23;;;;;;;9.52;3.97;;;;;;;5.42;100.00;101941.66;5032855;28;20037;-74
2022/12/27 18:56:52;;;;;;;11.40;4.50;;;;;;;5.41;100.00;101941.81;5028832;28;20037;-72
2022/12/27 18:59:21;;;;;;;11.45;4.10;;;;;;;5.41;100.00;101939.97;5031755;28;20071;-75
2022/12/27 19:01:47;;;;;;;10.82;4.13;;;;;;;5.38;100.00;101940.28;5025260;28;20033;-75
2022/12/27 19:04:13;;;;;;;11.90;3.60;;;;;;;5.36;100.00;101942.31;5013017;28;20030;-71
2022/12/27 19:06:59;;;;;;;11.93;3.90;;;;;;;5.35;100.00;101931.72;5019665;28;20037;-74
2022/12/27 19:09:30;;;;;;;12.85;4.38;;;;;;;5.32;100.00;101922.16;5011707;28;20033;-74
2022/12/27 19:12:04;;;;;;;;;;;;;;;5.45;100.00;101924.34;5017762;28;20476;-73
2022/12/27 19:14:43;;;;;;;10.32;3.90;;;;;;;5.33;100.00;101921.16;5026263;28;19924;-74
2022/12/27 19:17:22;;;;;;;12.88;4.25;;;;;;;5.29;100.00;101914.44;5012633;28;20057;-74
2022/12/27 19:19:53;;;;;;;12.63;4.75;;;;;;;5.25;100.00;101918.44;5034166;28;20468;-78
2022/12/27 19:22:46;;;;;;;11.68;4.40;;;;;;;5.27;100.00;101911.91;5024029;28;20030;-76
2022/12/27 19:25:25;;;;;;;12.80;4.60;;;;;;;5.22;100.00;101899.97;5029226;28;20041;-76
2022/12/27 19:27:58;;;;;;;12.32;4.13;;;;;;;5.19;100.00;101893.09;5032806;28;20481;-75
2022/12/27 19:30:36;;;;;;;11.55;4.28;;;;;;;5.18;100.00;101896.78;5029567;28;20034;-74
2022/12/27 19:33:08;;;;;;;10.80;4.38;;;;;;;5.12;100.00;101892.91;5032510;28;20104;-78
2022/12/27 19:35:34;;;;;;;11.23;4.80;;;;;;;5.10;100.00;101894.06;5032483;28;20029;-75
2022/12/27 19:38:00;;;;;;;12.55;5.05;;;;;;;5.08;100.00;101891.56;5031150;28;20061;-77
2022/12/27 19:40:26;;;;;;;10.68;4.40;;;;;;;5.07;100.00;101887.22;5014220;28;20038;-76
2022/12/27 19:42:51;;;;;;;10.80;4.45;;;;;;;5.06;100.00;101896.25;5010961;28;20033;-80
2022/12/27 19:45:18;;;;;;;14.13;4.43;;;;;;;5.08;100.00;101890.72;5016626;28;20033;-80
2022/12/27 19:47:44;;;;;;;13.02;5.22;;;;;;;5.03;100.00;101890.34;5030891;28;20029;-77
2022/12/27 19:50:10;;;;;;;14.18;4.90;;;;;;;5.05;100.00;101883.84;5023747;28;20033;-76
2022/12/27 19:52:35;;;;;;;14.02;4.80;;;;;;;5.04;100.00;101879.50;5015722;28;20096;-77
2022/12/27 19:55:05;;;;;;;13.60;4.70;;;;;;;5.03;100.00;101867.06;5015560;28;20030;-79
2022/12/27 19:57:30;;;;;;;13.40;4.72;;;;;;;5.01;100.00;101858.31;5021173;28;20240;-74
2022/12/27 19:59:55;;;;;;;12.63;4.88;;;;;;;4.97;100.00;101852.47;5022859;28;20478;-73
2022/12/27 20:02:22;;;;;;;11.00;4.60;;;;;;;4.97;100.00;101860.50;5010308;28;20026;-78
2022/12/27 20:04:47;;;;;;;13.43;5.25;;;;;;;4.96;100.00;101849.94;5033919;28;20030;-75
2022/12/27 20:07:22;;;;;;;19.70;11.75;;;;;;;4.97;100.00;101846.25;5011410;28;20466;-75
2022/12/27 20:09:47;;;;;;;13.07;6.03;;;;;;;4.96;100.00;101839.22;5012260;28;20087;-79
2022/12/27 20:12:13;;;;;;;12.50;5.43;;;;;;;4.96;100.00;101842.72;5016585;28;20030;-75
2022/12/27 20:14:38;;;;;;;10.43;4.82;;;;;;;4.96;100.00;101844.56;5024527;28;20433;-76
2022/12/27 20:17:04;;;;;;;13.38;4.88;;;;;;;4.97;100.00;101838.22;5016155;28;20034;-75
2022/12/27 20:19:29;;;;;;;12.82;5.82;;;;;;;4.96;100.00;101828.47;5027624;28;20026;-74
2022/12/27 20:21:54;;;;;;;13.07;5.30;;;;;;;4.96;100.00;101821.25;5028857;28;20034;-75
2022/12/27 20:24:19;;;;;;;14.75;4.95;;;;;;;4.99;100.00;101822.78;5025814;28;20068;-76
2022/12/27 20:26:45;;;;;;;10.60;4.50;;;;;;;4.96;100.00;101818.56;5018696;28;20070;-76
2022/12/27 20:29:11;;;;;;;8.52;4.70;;;;;;;4.99;100.00;101809.38;5021526;28;20422;-73
2022/12/27 20:31:37;;;;;;;11.65;4.60;;;;;;;4.95;100.00;101806.19;5029295;28;20021;-78
2022/12/27 20:34:03;;;;;;;11.98;4.70;;;;;;;4.97;100.00;101803.34;5024255;28;20112;-76
2022/12/27 20:36:29;;;;;;;15.18;4.50;;;;;;;4.98;100.00;101794.28;5023577;28;20071;-73
2022/12/27 20:38:54;;;;;;;11.95;4.65;;;;;;;5.00;100.00;101797.66;5030709;28;20112;-74
2022/12/27 20:41:20;;;;;;;11.82;4.55;;;;;;;5.01;100.00;101790.44;5031686;28;20033;-72
2022/12/27 20:43:46;;;;;;;12.73;4.43;;;;;;;5.02;100.00;101784.91;5029750;28;20043;-76
2022/12/27 20:46:16;;;;;;;11.65;4.25;;;;;;;5.02;100.00;101782.22;5031668;28;20031;-72
2022/12/27 20:48:44;;;;;;;10.85;4.60;;;;;;;5.04;100.00;101790.09;5034983;28;20460;-75
2022/12/27 20:51:12;;;;;;;16.10;4.70;;;;;;;5.03;100.00;101777.69;5034947;28;20069;-72
2022/12/27 20:53:38;;;;;;;11.70;4.30;;;;;;;5.04;100.00;101777.53;5023562;28;20037;-74
2022/12/27 20:56:04;;;;;;;13.38;4.65;;;;;;;5.04;100.00;101782.91;5033703;28;20449;-75
2022/12/27 20:58:31;;;;;;;15.10;5.32;;;;;;;5.06;100.00;101770.16;5034204;28;20064;-74
2022/12/27 21:01:03;;;;;;;11.60;4.38;;;;;;;5.07;100.00;101766.47;5032658;28;20477;-72
2022/12/27 21:03:29;;;;;;;10.73;4.15;;;;;;;5.08;100.00;101768.13;5033490;28;20429;-73
2022/12/27 21:05:54;;;;;;;12.15;5.13;;;;;;;5.10;100.00;101771.50;5035214;28;20080;-74
2022/12/27 21:08:19;;;;;;;12.98;4.00;;;;;;;5.12;100.00;101764.13;5027143;28;20029;-72
2022/12/27 21:10:44;;;;;;;13.75;4.10;;;;;;;5.12;100.00;101752.56;5015513;28;20417;-71
2022/12/27 21:13:10;;;;;;;11.98;5.00;;;;;;;5.13;100.00;101757.75;5026017;28;20481;-72
2022/12/27 21:15:35;;;;;;;14.30;4.82;;;;;;;5.14;100.00;101748.69;5035470;28;20076;-74
2022/12/27 21:18:00;;;;;;;11.45;4.32;;;;;;;5.18;100.00;101759.94;5034712;28;20366;-71
2022/12/27 21:20:26;;;;;;;12.23;4.28;;;;;;;5.15;100.00;101747.69;5035072;28;20512;-72
2022/12/27 21:22:51;;;;;;;12.40;3.92;;;;;;;5.17;100.00;101742.16;5023106;28;20030;-73
2022/12/27 21:25:16;;;;;;;9.35;4.10;;;;;;;5.20;100.00;101741.81;5013927;28;20466;-71
2022/12/27 21:27:42;;;;;;;12.70;4.35;;;;;;;5.21;100.00;101731.91;5013890;28;20033;-70
2022/12/27 21:30:08;;;;;;;10.18;4.40;;;;;;;5.23;100.00;101732.59;5013686;28;20096;-71
2022/12/27 21:32:33;;;;;;;11.07;4.78;;;;;;;5.23;100.00;101728.06;5012916;28;20056;-73
2022/12/27 21:34:59;;;;;;;11.57;4.47;;;;;;;5.25;100.00;101726.03;5014820;28;20433;-71
2022/12/27 21:37:24;;;;;;;10.68;3.90;;;;;;;5.25;100.00;101734.09;5015035;28;20038;-72
2022/12/27 21:39:49;;;;;;;10.52;3.88;;;;;;;5.26;100.00;101727.72;5012917;28;20061;-71
2022/12/27 21:42:15;;;;;;;11.30;3.80;;;;;;;5.26;100.00;101717.00;5048865;28;20029;-73
2022/12/27 21:44:40;;;;;;;10.10;3.90;;;;;;;5.26;100.00;101711.63;5032537;28;20071;-72
2022/12/27 21:47:05;;;;;;;9.25;4.07;;;;;;;5.29;100.00;101715.84;5033104;28;20222;-72
2022/12/27 21:49:31;;;;;;;11.70;4.53;;;;;;;5.30;100.00;101701.41;5034610;28;20076;-72
2022/12/27 21:51:56;;;;;;;7.60;4.00;;;;;;;5.31;100.00;101698.56;5031424;28;20156;-71
2022/12/27 21:54:22;;;;;;;7.90;3.70;;;;;;;5.30;100.00;101707.59;5016087;28;20535;-71
2022/12/27 21:56:48;;;;;;;10.75;3.70;;;;;;;5.33;100.00;101701.06;5016402;28;20033;-71
2022/12/27 21:59:13;;;;;;;11.05;3.90;;;;;;;5.33;100.00;101696.53;5034414;28;20510;-70
2022/12/27 22:01:41;;;;;;;10.95;4.15;;;;;;;5.36;100.00;101699.88;5030151;28;20049;-73
2022/12/27 22:04:06;;;;;;;14.50;5.07;;;;;;;5.34;100.00;101694.69;5032269;28;20034;-72
2022/12/27 22:06:34;;;;;;;13.25;4.68;;;;;;;5.36;100.00;101683.78;5034273;28;20615;-72
2022/12/27 22:09:05;;;;;;;11.23;3.92;;;;;;;5.37;100.00;101686.28;5032719;28;20029;-72
2022/12/27 22:11:32;;;;;;;15.27;4.85;;;;;;;5.42;100.00;101675.91;5032133;28;20511;-71
2022/12/27 22:13:58;;;;;;;13.70;4.38;;;;;;;5.38;100.00;101663.81;5012332;28;20073;-71
2022/12/27 22:16:29;;;;;;;10.85;4.25;;;;;;;5.42;100.00;101667.84;5032848;28;20453;-71
2022/12/27 22:18:55;;;;;;;12.37;4.87;;;;;;;5.43;100.00;101661.44;5034151;28;20033;-72
2022/12/27 22:21:25;;;;;;;10.07;4.38;;;;;;;5.40;100.00;101659.09;5032330;28;20298;-70
2022/12/27 22:23:53;;;;;;;12.48;4.85;;;;;;;5.42;100.00;101649.06;5032435;28;20033;-71
2022/12/27 22:26:21;;;;;;;11.52;4.35;;;;;;;5.44;100.00;101648.88;5029270;28;20385;-72
2022/12/27 22:28:47;;;;;;;8.80;4.25;;;;;;;5.47;100.00;101648.53;5031833;28;20036;-71
2022/12/27 22:31:15;;;;;;;10.90;4.22;;;;;;;5.47;100.00;101644.00;5032324;28;20029;-71
2022/12/27 22:33:41;;;;;;;11.90;4.28;;;;;;;5.48;100.00;101628.72;5032476;28;20037;-73
2022/12/27 22:36:15;;;;;;;8.25;3.88;;;;;;;5.49;100.00;101630.41;5013133;28;20500;-72
2022/12/27 22:38:44;;;;;;;11.70;4.05;;;;;;;5.49;100.00;101625.03;5012570;28;20564;-71
2022/12/27 22:41:13;;;;;;;11.13;4.05;;;;;;;5.49;100.00;101628.53;5011798;28;20076;-71
2022/12/27 22:43:39;;;;;;;8.95;4.13;;;;;;;5.54;100.00;101616.47;5013856;28;20061;-73
2022/12/27 22:46:07;;;;;;;12.93;4.15;;;;;;;5.55;100.00;101615.47;5011634;28;20072;-73
2022/12/27 22:48:33;;;;;;;10.18;4.05;;;;;;;5.57;100.00;101614.28;5013824;28;20036;-70
2022/12/27 22:51:05;;;;;;;8.05;3.85;;;;;;;5.58;100.00;101604.38;5028660;28;20386;-72
2022/12/27 22:53:30;;;;;;;;;;;;;;;5.68;100.00;101599.63;5014147;28;20092;-72
2022/12/27 22:55:55;;;;;;;9.95;4.00;;;;;;;5.62;100.00;101603.84;5025969;28;19913;-71
2022/12/27 22:58:20;;;;;;;9.95;3.55;;;;;;;5.65;100.00;101594.63;5012326;28;20034;-73
2022/12/27 23:00:46;;;;;;;12.45;4.32;;;;;;;5.63;100.00;101584.06;5042681;28;20092;-71
2022/12/27 23:03:12;;;;;;;9.55;4.25;;;;;;;5.65;100.00;101578.50;5013262;28;20030;-70
2022/12/27 23:05:37;;;;;;;10.65;4.38;;;;;;;5.68;100.00;101575.47;5024616;28;20480;-72
2022/12/27 23:08:02;;;;;;;10.75;4.80;;;;;;;5.66;100.00;101569.41;5031625;28;20034;-70
2022/12/27 23:10:28;;;;;;;9.65;4.07;;;;;;;5.70;100.00;101554.63;5031268;28;20033;-72
2022/12/27 23:12:55;;;;;;;12.57;3.85;;;;;;;5.69;100.00;101558.31;5014448;28;21684;-70
2022/12/27 23:15:20;;;;;;;10.70;4.50;;;;;;;5.73;100.00;101537.34;5017712;28;20537;-72
2022/12/27 23:17:45;;;;;;;11.27;4.03;;;;;;;5.74;100.00;101539.03;5013469;28;20044;-72
2022/12/27 23:20:11;;;;;;;9.55;3.95;;;;;;;5.75;100.00;101533.47;5012914;28;20065;-70
2022/12/27 23:22:36;;;;;;;11.30;4.25;;;;;;;5.77;100.00;101531.44;5012755;28;20026;-71
2022/12/27 23:25:01;;;;;;;11.13;4.20;;;;;;;5.77;100.00;101530.63;5031346;28;20124;-70
2022/12/27 23:27:27;;;;;;;10.57;3.92;;;;;;;5.75;100.00;101538.84;5023521;28;20087;-72
2022/12/27 23:29:53;;;;;;;11.68;4.05;;;;;;;5.76;100.00;101523.56;5012750;28;20532;-70
2022/12/27 23:32:19;;;;;;;8.95;4.32;;;;;;;5.78;100.00;101510.78;5012816;28;20032;-70
2022/12/27 23:34:44;;;;;;;10.10;3.80;;;;;;;5.78;100.00;101511.63;5011242;28;20033;-71
2022/12/27 23:37:09;;;;;;;8.93;3.60;;;;;;;5.79;100.00;101501.72;5011450;28;20627;-71
2022/12/27 23:39:35;;;;;;;8.60;3.85;;;;;;;5.80;100.00;101498.88;5013199;28;20084;-72
2022/12/27 23:42:00;;;;;;;9.73;4.07;;;;;;;5.81;100.00;101502.38;5015909;28;20567;-70
2022/12/27 23:44:28;;;;;;;9.75;4.32;;;;;;;5.81;100.00;101487.13;5031092;28;20037;-70
2022/12/27 23:46:54;;;;;;;10.70;3.75;;;;;;;5.81;100.00;101483.56;5031332;28;20029;-71
2022/12/27 23:49:19;;;;;;;11.07;4.32;;;;;;;5.80;100.00;101481.91;5030919;28;20025;-70
2022/12/27 23:51:45;;;;;;;9.27;4.30;;;;;;;5.81;100.00;101479.06;5031212;28;20025;-72
2022/12/27 23:54:10;;;;;;;11.40;4.20;;;;;;;5.79;100.00;101473.00;5031059;28;20060;-70
2022/12/27 23:56:36;;;;;;;12.23;4.32;;;;;;;5.80;100.00;101466.63;5026042;28;20034;-70
2022/12/27 23:59:05;;;;;;;8.70;4.03;;;;;;;5.83;100.00;101474.31;5011164;28;20065;-72
